createdAt,value
2019-02-16T00:01:03.654Z,8.16
2019-02-16T00:04:06.403Z,7.81
2019-02-16T00:07:12.001Z,7.89
2019-02-16T00:10:14.609Z,8.09
2019-02-16T00:13:18.336Z,8.02
2019-02-16T00:16:21.907Z,8.06
2019-02-16T00:19:24.562Z,7.86
2019-02-16T00:22:27.142Z,7.83
2019-02-16T00:25:29.681Z,8.00
2019-02-16T00:28:32.366Z,8.17
2019-02-16T00:31:35.053Z,8.05
2019-02-16T00:34:37.622Z,8.15
2019-02-16T00:37:40.483Z,8.08
2019-02-16T00:40:44.151Z,8.01
2019-02-16T00:43:46.851Z,8.08
2019-02-16T00:46:49.924Z,7.98
2019-02-16T00:49:52.547Z,8.04
2019-02-16T00:52:55.157Z,8.02
2019-02-16T00:55:57.933Z,7.99
2019-02-16T00:59:00.523Z,8.11
2019-02-16T01:02:03.152Z,8.03
2019-02-16T01:05:05.886Z,7.87
2019-02-16T01:08:08.446Z,7.78
2019-02-16T01:11:10.948Z,7.57
2019-02-16T01:14:13.497Z,8.14
2019-02-16T01:17:16.038Z,7.87
2019-02-16T01:20:18.618Z,7.74
2019-02-16T01:23:21.371Z,7.78
2019-02-16T01:26:24.127Z,8.05
2019-02-16T01:29:26.806Z,8.12
2019-02-16T01:32:29.507Z,8.00
2019-02-16T01:35:33.954Z,7.94
2019-02-16T01:38:36.590Z,8.04
2019-02-16T01:41:40.138Z,7.86
2019-02-16T01:44:42.761Z,7.89
2019-02-16T01:47:45.382Z,7.70
2019-02-16T01:50:48.086Z,7.81
2019-02-16T01:53:50.697Z,7.78
2019-02-16T01:56:53.403Z,7.90
2019-02-16T01:59:56.145Z,7.68
2019-02-16T02:02:58.701Z,7.60
2019-02-16T02:06:01.306Z,7.47
2019-02-16T02:09:04.528Z,8.05
2019-02-16T02:12:08.288Z,7.99
2019-02-16T02:15:10.946Z,7.89
2019-02-16T02:18:13.818Z,7.64
2019-02-16T02:21:16.353Z,7.56
2019-02-16T02:24:18.931Z,7.57
2019-02-16T02:27:21.931Z,7.28
2019-02-16T02:30:24.524Z,7.37
2019-02-16T02:33:27.193Z,7.37
2019-02-16T02:36:29.793Z,7.35
2019-02-16T02:39:32.356Z,7.28
2019-02-16T02:42:34.961Z,7.60
2019-02-16T02:45:37.644Z,7.61
2019-02-16T02:48:40.185Z,7.23
2019-02-16T02:51:51.710Z,6.73
2019-02-16T02:54:47.417Z,6.53
2019-02-16T02:57:49.945Z,6.46
2019-02-16T03:00:52.602Z,6.68
2019-02-16T03:03:55.186Z,6.54
2019-02-16T03:06:57.832Z,6.09
2019-02-16T03:10:00.456Z,6.08
2019-02-16T03:13:03.191Z,5.83
2019-02-16T03:16:05.737Z,5.75
2019-02-16T03:19:08.542Z,6.07
2019-02-16T03:22:11.242Z,5.84
2019-02-16T03:25:13.799Z,6.26
2019-02-16T03:28:35.762Z,6.22
2019-02-16T03:32:35.129Z,6.12
2019-02-16T03:36:54.092Z,5.96
2019-02-16T03:39:56.771Z,5.76
2019-02-16T03:42:59.459Z,5.72
2019-02-16T03:46:02.153Z,5.62
2019-02-16T03:49:04.830Z,5.39
2019-02-16T03:52:13.803Z,5.26
2019-02-16T03:55:12.757Z,5.66
2019-02-16T03:58:15.413Z,5.27
2019-02-16T04:01:18.068Z,5.03
2019-02-16T04:04:20.623Z,5.04
2019-02-16T04:07:23.219Z,5.08
2019-02-16T04:10:25.764Z,5.47
2019-02-16T04:13:28.408Z,5.62
2019-02-16T04:16:32.212Z,5.20
2019-02-16T04:19:34.846Z,5.20
2019-02-16T04:22:37.593Z,5.10
2019-02-16T04:25:40.133Z,4.93
2019-02-16T04:28:42.876Z,4.72
2019-02-16T04:31:45.446Z,4.71
2019-02-16T04:34:48.101Z,4.68
2019-02-16T04:37:50.804Z,5.01
2019-02-16T04:40:53.603Z,5.02
2019-02-16T04:43:56.271Z,5.90
2019-02-16T04:46:58.958Z,5.68
2019-02-16T04:50:01.563Z,6.31
2019-02-16T04:53:04.288Z,6.35
2019-02-16T04:56:06.852Z,5.93
2019-02-16T04:59:09.610Z,5.65
2019-02-16T05:02:12.375Z,5.21
2019-02-16T05:05:15.076Z,5.03
2019-02-16T05:08:17.650Z,4.95
2019-02-16T05:11:20.292Z,5.00
2019-02-16T05:14:22.943Z,5.30
2019-02-16T05:17:25.636Z,5.31
2019-02-16T05:20:28.208Z,5.10
2019-02-16T05:23:30.862Z,5.63
2019-02-16T05:26:33.548Z,5.19
2019-02-16T05:29:36.243Z,5.06
2019-02-16T05:32:38.844Z,4.63
2019-02-16T05:35:41.452Z,4.71
2019-02-16T05:38:44.187Z,4.36
2019-02-16T05:41:46.896Z,4.24
2019-02-16T05:44:49.636Z,4.29
2019-02-16T05:47:52.161Z,3.88
2019-02-16T05:50:54.792Z,3.87
2019-02-16T05:53:57.399Z,4.24
2019-02-16T05:57:00.100Z,4.12
2019-02-16T06:00:02.822Z,4.34
2019-02-16T06:03:05.547Z,4.45
2019-02-16T06:06:08.334Z,4.31
2019-02-16T06:09:10.911Z,4.47
2019-02-16T06:12:13.466Z,4.24
2019-02-16T06:15:16.015Z,4.04
2019-02-16T06:18:18.867Z,4.13
2019-02-16T06:21:21.603Z,4.07
2019-02-16T06:24:24.297Z,3.88
2019-02-16T06:27:26.967Z,3.76
2019-02-16T06:30:29.652Z,3.79
2019-02-16T06:33:32.335Z,3.77
2019-02-16T06:36:38.387Z,3.91
2019-02-16T06:39:40.969Z,3.62
2019-02-16T06:42:43.607Z,3.56
2019-02-16T06:45:46.194Z,3.68
2019-02-16T06:48:48.779Z,3.70
2019-02-16T06:51:51.279Z,3.62
2019-02-16T06:54:53.957Z,3.45
2019-02-16T06:57:56.549Z,3.39
2019-02-16T07:00:59.193Z,3.52
2019-02-16T07:04:01.859Z,3.53
2019-02-16T07:07:04.510Z,3.83
2019-02-16T07:10:09.927Z,4.03
2019-02-16T07:13:13.584Z,3.89
2019-02-16T07:16:46.384Z,4.00
2019-02-16T07:19:54.698Z,3.99
2019-02-16T07:22:57.203Z,4.08
2019-02-16T07:25:59.828Z,4.19
2019-02-16T07:29:02.580Z,4.20
2019-02-16T07:32:05.169Z,4.30
2019-02-16T07:35:07.812Z,4.38
2019-02-16T07:38:11.374Z,4.44
2019-02-16T07:41:14.036Z,4.52
2019-02-16T07:44:33.183Z,4.74
2019-02-16T07:47:50.262Z,5.28
2019-02-16T07:51:15.290Z,5.59
2019-02-16T07:54:25.134Z,5.74
2019-02-16T07:57:47.123Z,5.83
2019-02-16T08:01:09.198Z,6.02
2019-02-16T08:04:46.408Z,6.30
2019-02-16T08:07:56.603Z,6.58
2019-02-16T08:11:20.164Z,6.50
2019-02-16T08:14:31.784Z,6.55
2019-02-16T08:17:53.897Z,6.43
2019-02-16T08:21:09.927Z,6.27
2019-02-16T08:24:44.263Z,6.34
2019-02-16T08:28:06.345Z,6.35
2019-02-16T08:31:15.160Z,6.26
2019-02-16T08:34:33.194Z,6.33
2019-02-16T08:37:52.135Z,6.70
2019-02-16T08:41:20.219Z,6.58
2019-02-16T08:44:31.837Z,6.84
2019-02-16T08:47:52.985Z,7.23
2019-02-16T08:51:21.272Z,7.13
2019-02-16T08:54:43.832Z,7.42
2019-02-16T08:57:52.755Z,7.31
2019-02-16T09:01:27.606Z,7.34
2019-02-16T09:04:53.189Z,7.18
2019-02-16T09:08:08.202Z,8.13
2019-02-16T09:11:21.729Z,8.22
2019-02-16T09:14:56.084Z,8.11
2019-02-16T09:18:36.587Z,8.36
2019-02-16T09:22:07.953Z,8.64
2019-02-16T09:25:22.559Z,8.80
2019-02-16T09:28:43.233Z,8.93
2019-02-16T09:32:08.303Z,8.95
2019-02-16T09:35:33.542Z,8.92
2019-02-16T09:38:42.437Z,8.96
2019-02-16T09:42:03.773Z,9.20
2019-02-16T09:45:25.424Z,9.38
2019-02-16T09:48:36.176Z,9.49
2019-02-16T09:51:58.345Z,9.54
2019-02-16T09:55:20.340Z,9.92
2019-02-16T09:58:47.827Z,9.93
2019-02-16T10:02:19.149Z,9.96
2019-02-16T10:05:53.587Z,10.21
2019-02-16T10:09:10.477Z,10.30
2019-02-16T10:12:35.710Z,10.43
2019-02-16T10:16:00.760Z,10.51
2019-02-16T10:19:13.585Z,10.46
2019-02-16T10:22:47.898Z,10.68
2019-02-16T10:26:15.392Z,10.58
2019-02-16T10:29:27.184Z,10.85
2019-02-16T10:32:49.419Z,10.79
2019-02-16T10:36:02.138Z,10.77
2019-02-16T10:39:24.899Z,10.94
2019-02-16T10:42:39.845Z,11.02
2019-02-16T10:45:52.457Z,11.00
2019-02-16T10:49:20.644Z,11.17
2019-02-16T10:52:42.787Z,11.29
2019-02-16T10:56:17.629Z,11.43
2019-02-16T10:59:39.943Z,11.36
2019-02-16T11:02:57.951Z,11.47
2019-02-16T11:06:20.887Z,11.62
2019-02-16T11:09:44.152Z,11.58
2019-02-16T11:13:08.853Z,11.62
2019-02-16T11:16:54.410Z,11.51
2019-02-16T11:20:16.833Z,11.60
2019-02-16T11:23:41.737Z,11.60
2019-02-16T11:27:09.920Z,11.74
2019-02-16T11:30:21.530Z,11.67
2019-02-16T11:33:36.063Z,11.74
2019-02-16T11:36:45.037Z,11.82
2019-02-16T11:40:13.233Z,11.76
2019-02-16T11:43:35.333Z,11.87
2019-02-16T11:47:03.493Z,11.81
2019-02-16T11:50:37.755Z,12.00
2019-02-16T11:54:02.875Z,12.00
2019-02-16T11:57:40.262Z,11.98
2019-02-16T12:01:01.268Z,11.79
2019-02-16T12:04:22.185Z,12.00
2019-02-16T12:07:38.798Z,12.10
2019-02-16T12:11:00.967Z,12.31
2019-02-16T12:14:32.386Z,12.26
2019-02-16T12:17:43.314Z,12.22
2019-02-16T12:21:08.482Z,12.05
2019-02-16T12:24:36.824Z,12.21
2019-02-16T12:27:53.735Z,12.13
2019-02-16T12:31:22.005Z,12.31
2019-02-16T12:34:44.147Z,12.26
2019-02-16T12:37:53.645Z,12.18
2019-02-16T12:41:15.959Z,12.21
2019-02-16T12:44:41.230Z,12.10
2019-02-16T12:47:55.210Z,12.29
2019-02-16T12:51:05.880Z,12.44
2019-02-16T12:54:18.444Z,12.48
2019-02-16T12:57:46.624Z,12.59
2019-02-16T13:01:05.353Z,12.64
2019-02-16T13:04:30.428Z,12.51
2019-02-16T13:07:38.514Z,12.57
2019-02-16T13:11:03.699Z,12.69
2019-02-16T13:14:13.155Z,12.66
2019-02-16T13:17:41.287Z,12.51
2019-02-16T13:21:03.376Z,12.53
2019-02-16T13:24:10.204Z,12.53
2019-02-16T13:27:25.868Z,12.73
2019-02-16T13:30:46.237Z,12.62
2019-02-16T13:33:53.719Z,12.72
2019-02-16T13:37:12.833Z,12.89
2019-02-16T13:40:44.133Z,12.86
2019-02-16T13:44:12.249Z,12.87
2019-02-16T13:47:24.892Z,12.89
2019-02-16T13:50:38.990Z,13.11
2019-02-16T13:53:49.909Z,13.00
2019-02-16T13:57:21.165Z,13.11
2019-02-16T14:00:39.242Z,13.02
2019-02-16T14:04:01.315Z,13.14
2019-02-16T14:07:23.613Z,12.88
2019-02-16T14:10:37.033Z,13.00
2019-02-16T14:14:05.307Z,13.16
2019-02-16T14:17:30.382Z,13.11
2019-02-16T14:20:33.055Z,13.36
2019-02-16T14:23:35.687Z,13.39
2019-02-16T14:26:38.412Z,13.03
2019-02-16T14:29:41.086Z,13.14
2019-02-16T14:32:43.746Z,13.19
2019-02-16T14:35:46.426Z,13.06
2019-02-16T14:38:57.174Z,13.24
2019-02-16T14:41:59.907Z,13.02
2019-02-16T14:45:02.623Z,12.81
2019-02-16T14:48:05.242Z,12.96
2019-02-16T14:51:07.963Z,13.33
2019-02-16T14:54:10.673Z,13.17
2019-02-16T14:57:13.382Z,13.12
2019-02-16T15:00:16.262Z,13.08
2019-02-16T15:03:19.058Z,12.88
2019-02-16T15:06:21.858Z,13.02
2019-02-16T15:09:26.488Z,12.80
2019-02-16T15:12:29.109Z,12.80
2019-02-16T15:15:31.736Z,12.64
2019-02-16T15:18:34.416Z,12.60
2019-02-16T15:21:37.115Z,12.23
2019-02-16T15:24:39.793Z,12.23
2019-02-16T15:27:42.486Z,12.12
2019-02-16T15:30:45.117Z,11.88
2019-02-16T15:33:47.847Z,11.94
2019-02-16T15:36:50.518Z,11.91
2019-02-16T15:39:53.181Z,11.81
2019-02-16T15:42:55.892Z,11.83
2019-02-16T15:45:58.708Z,11.58
2019-02-16T15:49:01.381Z,11.19
2019-02-16T15:52:03.962Z,10.97
2019-02-16T15:55:07.727Z,10.89
2019-02-16T15:58:10.316Z,10.50
2019-02-16T16:01:12.955Z,10.19
2019-02-16T16:04:15.720Z,9.95
2019-02-16T16:07:18.476Z,9.97
2019-02-16T16:10:29.769Z,9.76
2019-02-16T16:13:50.487Z,9.83
2019-02-16T16:17:12.495Z,9.81
2019-02-16T16:20:34.595Z,9.72
2019-02-16T16:23:51.767Z,9.52
2019-02-16T16:27:04.317Z,9.42
2019-02-16T16:30:44.732Z,9.40
2019-02-16T16:34:15.911Z,9.15
2019-02-16T16:37:43.931Z,9.08
2019-02-16T16:41:09.020Z,9.07
2019-02-16T16:44:22.609Z,9.01
2019-02-16T16:47:50.791Z,9.20
2019-02-16T16:51:03.208Z,9.24
2019-02-16T16:54:14.988Z,9.11
2019-02-16T16:57:35.946Z,9.08
2019-02-16T17:01:16.441Z,8.95
2019-02-16T17:04:24.111Z,9.05
2019-02-16T17:07:46.182Z,9.03
2019-02-16T17:11:02.791Z,8.82
2019-02-16T17:14:17.106Z,8.76
2019-02-16T17:17:36.442Z,9.29
2019-02-16T17:21:05.632Z,8.87
2019-02-16T17:24:26.469Z,8.70
2019-02-16T17:27:42.177Z,8.13
2019-02-16T17:30:54.352Z,8.51
2019-02-16T17:34:03.228Z,8.60
2019-02-16T17:37:21.380Z,8.39
2019-02-16T17:40:34.102Z,8.14
2019-02-16T17:43:49.612Z,8.36
2019-02-16T17:47:10.682Z,8.37
2019-02-16T17:50:32.476Z,8.09
2019-02-16T17:53:57.570Z,8.12
2019-02-16T17:57:19.647Z,8.22
2019-02-16T18:00:49.021Z,7.83
2019-02-16T18:04:09.951Z,7.97
2019-02-16T18:07:44.194Z,8.38
2019-02-16T18:11:06.355Z,8.70
2019-02-16T18:14:31.420Z,8.53
2019-02-16T18:17:59.802Z,8.15
2019-02-16T18:21:33.959Z,8.00
2019-02-16T18:24:52.136Z,8.24
2019-02-16T18:28:14.235Z,8.22
2019-02-16T18:31:51.581Z,7.65
2019-02-16T18:35:32.804Z,7.57
2019-02-16T18:38:54.868Z,7.34
2019-02-16T18:42:15.526Z,7.60
2019-02-16T18:45:43.650Z,7.64
2019-02-16T18:49:21.125Z,8.21
2019-02-16T18:52:49.372Z,8.28
2019-02-16T18:56:15.420Z,7.98
2019-02-16T18:59:33.851Z,8.22
2019-02-16T19:02:52.903Z,8.29
2019-02-16T19:06:16.680Z,8.07
2019-02-16T19:09:26.422Z,8.59
2019-02-16T19:12:47.411Z,8.35
2019-02-16T19:16:08.446Z,8.05
2019-02-16T19:19:33.367Z,7.58
2019-02-16T19:22:54.256Z,7.29
2019-02-16T19:26:12.977Z,7.13
2019-02-16T19:29:33.897Z,7.19
2019-02-16T19:33:23.396Z,7.32
2019-02-16T19:36:45.446Z,7.45
2019-02-16T19:40:03.649Z,7.27
2019-02-16T19:43:29.821Z,7.27
2019-02-16T19:46:58.491Z,7.08
2019-02-16T19:50:19.292Z,7.02
2019-02-16T19:53:40.135Z,7.09
2019-02-16T19:56:58.487Z,7.04
2019-02-16T20:00:31.767Z,7.14
2019-02-16T20:03:41.330Z,6.84
2019-02-16T20:07:02.400Z,6.94
2019-02-16T20:10:23.860Z,6.95
2019-02-16T20:13:44.674Z,6.99
2019-02-16T20:17:06.459Z,7.14
2019-02-16T20:20:20.070Z,6.98
2019-02-16T20:23:42.213Z,7.17
2019-02-16T20:27:19.736Z,6.94
2019-02-16T20:30:44.700Z,6.87
2019-02-16T20:34:06.092Z,6.75
2019-02-16T20:37:34.304Z,6.67
2019-02-16T20:40:56.499Z,6.70
2019-02-16T20:44:17.221Z,6.72
2019-02-16T20:47:37.855Z,6.65
2019-02-16T20:51:06.891Z,6.70
2019-02-16T20:54:27.765Z,6.66
2019-02-16T20:57:48.872Z,6.50
2019-02-16T21:01:12.072Z,6.46
2019-02-16T21:04:25.404Z,6.29
2019-02-16T21:07:59.640Z,6.40
2019-02-16T21:11:24.234Z,6.54
2019-02-16T21:14:42.869Z,6.56
2019-02-16T21:18:00.241Z,6.46
2019-02-16T21:21:22.339Z,6.55
2019-02-16T21:24:41.092Z,6.71
2019-02-16T21:28:12.415Z,6.45
2019-02-16T21:31:29.867Z,6.58
2019-02-16T21:34:52.035Z,6.60
2019-02-16T21:38:12.944Z,6.53
2019-02-16T21:41:30.767Z,6.49
2019-02-16T21:45:01.901Z,6.41
2019-02-16T21:48:13.075Z,6.37
2019-02-16T21:51:40.946Z,6.41
2019-02-16T21:54:48.984Z,6.49
2019-02-16T21:58:24.864Z,6.35
2019-02-16T22:01:49.884Z,6.21
2019-02-16T22:05:02.856Z,6.01
2019-02-16T22:08:19.232Z,6.29
2019-02-16T22:11:28.896Z,6.09
2019-02-16T22:14:31.521Z,6.30
2019-02-16T22:17:36.413Z,6.26
2019-02-16T22:20:39.286Z,6.30
2019-02-16T22:23:42.055Z,6.00
2019-02-16T22:26:44.683Z,5.81
2019-02-16T22:29:47.395Z,5.66
2019-02-16T22:32:55.655Z,5.94
2019-02-16T22:35:58.539Z,5.70
2019-02-16T22:39:02.312Z,5.81
2019-02-16T22:42:08.060Z,5.78
2019-02-16T22:45:11.165Z,5.87
2019-02-16T22:48:14.468Z,5.89
2019-02-16T22:51:17.123Z,5.87
2019-02-16T22:54:19.866Z,6.01
2019-02-16T22:57:22.555Z,5.79
2019-02-16T23:00:36.731Z,5.60
2019-02-16T23:03:41.048Z,5.97
2019-02-16T23:06:45.180Z,5.78
2019-02-16T23:09:47.885Z,5.68
2019-02-16T23:12:50.574Z,5.67
2019-02-16T23:15:53.149Z,5.43
2019-02-16T23:18:55.882Z,5.54
2019-02-16T23:21:58.509Z,5.53
2019-02-16T23:25:02.552Z,5.37
2019-02-16T23:28:06.375Z,5.56
2019-02-16T23:31:09.107Z,5.30
2019-02-16T23:34:12.931Z,5.34
2019-02-16T23:37:15.573Z,5.49
2019-02-16T23:40:18.297Z,5.49
2019-02-16T23:43:20.855Z,5.55
2019-02-16T23:46:26.174Z,5.65
2019-02-16T23:49:29.158Z,5.61
2019-02-16T23:52:33.632Z,5.67
2019-02-16T23:55:36.459Z,5.87
2019-02-16T23:58:48.637Z,5.74
